sensor_id;sensor_type;location;lat;lon;timestamp;P1;durP1;ratioP1;P2;durP2;ratioP2
83715;SDS011;73698;51.138;6.950;2024-01-15T11:57:45;7.50;;;3.97;;
83715;SDS011;73698;51.138;6.950;2024-01-15T12:00:19;6.25;;;3.85;;
83715;SDS011;73698;51.138;6.950;2024-01-15T12:02:46;9.80;;;4.15;;
83715;SDS011;73698;51.138;6.950;2024-01-15T12:05:13;5.32;;;3.20;;
83715;SDS011;73698;51.138;6.950;2024-01-15T12:07:40;8.60;;;3.38;;
83715;SDS011;73698;51.138;6.950;2024-01-15T12:10:12;8.68;;;3.60;;
83715;SDS011;73698;51.138;6.950;2024-01-15T12:15:26;4.82;;;3.15;;
83715;SDS011;73698;51.138;6.950;2024-01-15T12:17:56;6.55;;;3.22;;
83715;SDS011;73698;51.138;6.950;2024-01-15T12:20:26;4.18;;;2.78;;
83715;SDS011;73698;51.138;6.950;2024-01-15T12:22:52;6.05;;;3.28;;
83715;SDS011;73698;51.138;6.950;2024-01-15T12:25:18;6.38;;;2.88;;
83715;SDS011;73698;51.138;6.950;2024-01-15T12:27:44;7.95;;;3.42;;
83715;SDS011;73698;51.138;6.950;2024-01-15T12:30:11;6.90;;;3.05;;
83715;SDS011;73698;51.138;6.950;2024-01-15T12:32:37;8.05;;;3.97;;
83715;SDS011;73698;51.138;6.950;2024-01-15T12:35:02;8.80;;;4.35;;
83715;SDS011;73698;51.138;6.950;2024-01-15T12:37:29;7.13;;;4.72;;
83715;SDS011;73698;51.138;6.950;2024-01-15T12:39:55;15.50;;;5.32;;
83715;SDS011;73698;51.138;6.950;2024-01-15T12:42:21;9.25;;;5.88;;
83715;SDS011;73698;51.138;6.950;2024-01-15T12:44:46;10.75;;;5.70;;
83715;SDS011;73698;51.138;6.950;2024-01-15T12:47:12;9.20;;;5.88;;
83715;SDS011;73698;51.138;6.950;2024-01-15T12:49:39;13.77;;;6.03;;
83715;SDS011;73698;51.138;6.950;2024-01-15T12:52:07;11.13;;;6.57;;
83715;SDS011;73698;51.138;6.950;2024-01-15T12:54:34;11.75;;;6.15;;
83715;SDS011;73698;51.138;6.950;2024-01-15T12:56:59;13.70;;;6.38;;
83715;SDS011;73698;51.138;6.950;2024-01-15T12:59:25;13.70;;;7.00;;
83715;SDS011;73698;51.138;6.950;2024-01-15T13:01:50;12.27;;;6.80;;
83715;SDS011;73698;51.138;6.950;2024-01-15T13:04:25;9.90;;;5.72;;
83715;SDS011;73698;51.138;6.950;2024-01-15T13:06:50;13.63;;;5.95;;
83715;SDS011;73698;51.138;6.950;2024-01-15T13:09:16;9.90;;;4.50;;
83715;SDS011;73698;51.138;6.950;2024-01-15T13:11:43;10.18;;;4.80;;
83715;SDS011;73698;51.138;6.950;2024-01-15T13:14:11;5.63;;;3.85;;
83715;SDS011;73698;51.138;6.950;2024-01-15T13:16:38;10.65;;;4.55;;
83715;SDS011;73698;51.138;6.950;2024-01-15T13:19:10;10.57;;;5.10;;
83715;SDS011;73698;51.138;6.950;2024-01-15T13:21:41;7.68;;;4.30;;
83715;SDS011;73698;51.138;6.950;2024-01-15T13:24:07;6.32;;;3.97;;
83715;SDS011;73698;51.138;6.950;2024-01-15T13:26:34;9.38;;;5.30;;
83715;SDS011;73698;51.138;6.950;2024-01-15T13:29:00;7.45;;;3.95;;
83715;SDS011;73698;51.138;6.950;2024-01-15T13:31:26;7.82;;;4.15;;
83715;SDS011;73698;51.138;6.950;2024-01-15T13:33:52;10.55;;;4.55;;
83715;SDS011;73698;51.138;6.950;2024-01-15T13:36:18;12.38;;;4.75;;
83715;SDS011;73698;51.138;6.950;2024-01-15T13:38:43;7.40;;;4.00;;
83715;SDS011;73698;51.138;6.950;2024-01-15T13:41:08;8.27;;;4.03;;
83715;SDS011;73698;51.138;6.950;2024-01-15T13:43:34;7.53;;;3.85;;
83715;SDS011;73698;51.138;6.950;2024-01-15T13:45:59;9.90;;;4.50;;
83715;SDS011;73698;51.138;6.950;2024-01-15T13:48:25;5.82;;;3.63;;
83715;SDS011;73698;51.138;6.950;2024-01-15T13:50:51;8.00;;;3.63;;
83715;SDS011;73698;51.138;6.950;2024-01-15T13:53:17;5.30;;;3.95;;
83715;SDS011;73698;51.138;6.950;2024-01-15T13:55:44;6.80;;;3.28;;
83715;SDS011;73698;51.138;6.950;2024-01-15T13:58:09;5.32;;;2.78;;
83715;SDS011;73698;51.138;6.950;2024-01-15T14:00:35;4.45;;;2.33;;
83715;SDS011;73698;51.138;6.950;2024-01-15T14:03:00;4.50;;;2.63;;
83715;SDS011;73698;51.138;6.950;2024-01-15T14:05:26;3.30;;;3.00;;
83715;SDS011;73698;51.138;6.950;2024-01-15T14:07:51;4.80;;;2.72;;
83715;SDS011;73698;51.138;6.950;2024-01-15T14:10:17;5.70;;;2.15;;
83715;SDS011;73698;51.138;6.950;2024-01-15T14:12:42;7.07;;;2.90;;
83715;SDS011;73698;51.138;6.950;2024-01-15T14:15:08;8.55;;;2.92;;
83715;SDS011;73698;51.138;6.950;2024-01-15T14:17:34;3.13;;;2.30;;
83715;SDS011;73698;51.138;6.950;2024-01-15T14:19:59;3.58;;;2.65;;
83715;SDS011;73698;51.138;6.950;2024-01-15T14:22:25;4.25;;;2.75;;
83715;SDS011;73698;51.138;6.950;2024-01-15T14:24:50;5.15;;;2.92;;
83715;SDS011;73698;51.138;6.950;2024-01-15T14:27:16;5.45;;;2.45;;
83715;SDS011;73698;51.138;6.950;2024-01-15T14:29:41;5.53;;;2.33;;
83715;SDS011;73698;51.138;6.950;2024-01-15T14:32:07;4.10;;;2.22;;
83715;SDS011;73698;51.138;6.950;2024-01-15T14:34:32;2.05;;;1.55;;
83715;SDS011;73698;51.138;6.950;2024-01-15T14:36:58;2.42;;;2.00;;
83715;SDS011;73698;51.138;6.950;2024-01-15T14:39:23;3.42;;;2.55;;
83715;SDS011;73698;51.138;6.950;2024-01-15T14:41:49;4.88;;;1.88;;
83715;SDS011;73698;51.138;6.950;2024-01-15T14:44:15;2.20;;;1.50;;
83715;SDS011;73698;51.138;6.950;2024-01-15T14:46:40;3.40;;;1.50;;
83715;SDS011;73698;51.138;6.950;2024-01-15T14:49:06;3.65;;;1.98;;
83715;SDS011;73698;51.138;6.950;2024-01-15T14:51:31;3.80;;;2.47;;
83715;SDS011;73698;51.138;6.950;2024-01-15T14:53:57;2.42;;;1.90;;
83715;SDS011;73698;51.138;6.950;2024-01-15T14:56:23;6.53;;;2.50;;
83715;SDS011;73698;51.138;6.950;2024-01-15T14:58:48;2.80;;;1.70;;
83715;SDS011;73698;51.138;6.950;2024-01-15T15:01:14;3.88;;;1.88;;
83715;SDS011;73698;51.138;6.950;2024-01-15T15:03:39;2.92;;;1.30;;
83715;SDS011;73698;51.138;6.950;2024-01-15T15:06:05;7.25;;;2.40;;
83715;SDS011;73698;51.138;6.950;2024-01-15T15:08:32;4.50;;;1.40;;
83715;SDS011;73698;51.138;6.950;2024-01-15T15:10:58;2.97;;;1.55;;
83715;SDS011;73698;51.138;6.950;2024-01-15T15:13:24;3.10;;;1.33;;
83715;SDS011;73698;51.138;6.950;2024-01-15T15:15:51;1.65;;;1.17;;
83715;SDS011;73698;51.138;6.950;2024-01-15T15:18:16;1.05;;;1.00;;
83715;SDS011;73698;51.138;6.950;2024-01-15T15:20:42;1.30;;;1.20;;
83715;SDS011;73698;51.138;6.950;2024-01-15T15:23:08;2.03;;;1.15;;
83715;SDS011;73698;51.138;6.950;2024-01-15T15:25:34;1.60;;;1.48;;
83715;SDS011;73698;51.138;6.950;2024-01-15T15:28:00;2.90;;;1.42;;
83715;SDS011;73698;51.138;6.950;2024-01-15T15:30:26;1.95;;;1.40;;
83715;SDS011;73698;51.138;6.950;2024-01-15T15:32:52;1.30;;;1.08;;
83715;SDS011;73698;51.138;6.950;2024-01-15T15:35:17;3.30;;;1.58;;
83715;SDS011;73698;51.138;6.950;2024-01-15T15:37:43;1.45;;;1.35;;
83715;SDS011;73698;51.138;6.950;2024-01-15T15:40:08;1.70;;;1.38;;
83715;SDS011;73698;51.138;6.950;2024-01-15T15:42:36;2.15;;;1.95;;
83715;SDS011;73698;51.138;6.950;2024-01-15T15:45:02;4.15;;;1.70;;
83715;SDS011;73698;51.138;6.950;2024-01-15T15:47:28;1.40;;;1.25;;
83715;SDS011;73698;51.138;6.950;2024-01-15T15:49:54;1.85;;;1.40;;
83715;SDS011;73698;51.138;6.950;2024-01-15T15:52:19;3.65;;;1.35;;
83715;SDS011;73698;51.138;6.950;2024-01-15T15:54:44;1.67;;;1.23;;
83715;SDS011;73698;51.138;6.950;2024-01-15T15:57:10;1.92;;;1.10;;
83715;SDS011;73698;51.138;6.950;2024-01-15T15:59:35;1.77;;;1.42;;
83715;SDS011;73698;51.138;6.950;2024-01-15T16:02:01;1.73;;;1.25;;
83715;SDS011;73698;51.138;6.950;2024-01-15T16:04:26;3.00;;;1.75;;
83715;SDS011;73698;51.138;6.950;2024-01-15T16:06:52;6.25;;;2.08;;
83715;SDS011;73698;51.138;6.950;2024-01-15T16:09:18;3.08;;;2.20;;
83715;SDS011;73698;51.138;6.950;2024-01-15T16:11:44;5.00;;;3.33;;
83715;SDS011;73698;51.138;6.950;2024-01-15T16:14:09;4.22;;;2.10;;
83715;SDS011;73698;51.138;6.950;2024-01-15T16:16:34;3.42;;;2.20;;
83715;SDS011;73698;51.138;6.950;2024-01-15T16:19:00;4.35;;;1.73;;
83715;SDS011;73698;51.138;6.950;2024-01-15T16:21:26;5.13;;;2.38;;
83715;SDS011;73698;51.138;6.950;2024-01-15T16:23:52;5.25;;;3.13;;
83715;SDS011;73698;51.138;6.950;2024-01-15T16:26:17;9.68;;;2.85;;
83715;SDS011;73698;51.138;6.950;2024-01-15T16:28:43;5.35;;;2.90;;
83715;SDS011;73698;51.138;6.950;2024-01-15T16:31:08;4.85;;;2.00;;
83715;SDS011;73698;51.138;6.950;2024-01-15T16:33:33;10.40;;;3.20;;
83715;SDS011;73698;51.138;6.950;2024-01-15T16:35:59;3.72;;;2.35;;
83715;SDS011;73698;51.138;6.950;2024-01-15T16:38:24;3.78;;;2.20;;
83715;SDS011;73698;51.138;6.950;2024-01-15T16:40:50;4.57;;;2.10;;
83715;SDS011;73698;51.138;6.950;2024-01-15T16:43:15;4.38;;;2.28;;
83715;SDS011;73698;51.138;6.950;2024-01-15T16:45:41;3.55;;;2.22;;
83715;SDS011;73698;51.138;6.950;2024-01-15T16:48:06;5.43;;;3.05;;
83715;SDS011;73698;51.138;6.950;2024-01-15T16:50:31;4.97;;;3.33;;
83715;SDS011;73698;51.138;6.950;2024-01-15T16:52:57;6.28;;;3.25;;
83715;SDS011;73698;51.138;6.950;2024-01-15T16:55:22;6.38;;;3.72;;
83715;SDS011;73698;51.138;6.950;2024-01-15T16:57:48;7.63;;;4.65;;
83715;SDS011;73698;51.138;6.950;2024-01-15T17:00:14;10.50;;;5.28;;
83715;SDS011;73698;51.138;6.950;2024-01-15T17:02:40;7.63;;;4.65;;
83715;SDS011;73698;51.138;6.950;2024-01-15T17:05:06;7.78;;;4.32;;
83715;SDS011;73698;51.138;6.950;2024-01-15T17:07:32;10.85;;;4.97;;
83715;SDS011;73698;51.138;6.950;2024-01-15T17:09:57;6.28;;;4.28;;
83715;SDS011;73698;51.138;6.950;2024-01-15T17:12:24;10.18;;;4.18;;
83715;SDS011;73698;51.138;6.950;2024-01-15T17:14:49;8.27;;;4.68;;
83715;SDS011;73698;51.138;6.950;2024-01-15T17:17:14;5.43;;;3.50;;
83715;SDS011;73698;51.138;6.950;2024-01-15T17:19:41;8.15;;;3.80;;
83715;SDS011;73698;51.138;6.950;2024-01-15T17:22:07;5.85;;;3.33;;
83715;SDS011;73698;51.138;6.950;2024-01-15T17:24:32;4.18;;;3.40;;
83715;SDS011;73698;51.138;6.950;2024-01-15T17:26:58;9.55;;;4.22;;
83715;SDS011;73698;51.138;6.950;2024-01-15T17:29:23;6.30;;;3.25;;
83715;SDS011;73698;51.138;6.950;2024-01-15T17:31:49;6.85;;;3.60;;
83715;SDS011;73698;51.138;6.950;2024-01-15T17:34:14;9.07;;;3.38;;
83715;SDS011;73698;51.138;6.950;2024-01-15T17:36:40;9.07;;;3.25;;
83715;SDS011;73698;51.138;6.950;2024-01-15T17:39:05;12.73;;;3.78;;
83715;SDS011;73698;51.138;6.950;2024-01-15T17:41:31;9.57;;;4.07;;
83715;SDS011;73698;51.138;6.950;2024-01-15T17:43:58;6.80;;;3.90;;
83715;SDS011;73698;51.138;6.950;2024-01-15T17:46:24;8.13;;;3.33;;
83715;SDS011;73698;51.138;6.950;2024-01-15T17:48:49;12.02;;;3.53;;
83715;SDS011;73698;51.138;6.950;2024-01-15T17:51:18;7.10;;;3.88;;
83715;SDS011;73698;51.138;6.950;2024-01-15T17:53:44;7.47;;;2.83;;
83715;SDS011;73698;51.138;6.950;2024-01-15T17:56:10;6.18;;;3.20;;
83715;SDS011;73698;51.138;6.950;2024-01-15T17:58:36;8.02;;;3.20;;
83715;SDS011;73698;51.138;6.950;2024-01-15T18:01:01;8.75;;;3.13;;
83715;SDS011;73698;51.138;6.950;2024-01-15T18:03:27;5.97;;;3.53;;
83715;SDS011;73698;51.138;6.950;2024-01-15T18:05:53;6.78;;;3.28;;
83715;SDS011;73698;51.138;6.950;2024-01-15T18:08:19;9.63;;;3.20;;
83715;SDS011;73698;51.138;6.950;2024-01-15T18:10:44;5.85;;;3.10;;
83715;SDS011;73698;51.138;6.950;2024-01-15T18:13:10;5.28;;;3.22;;
83715;SDS011;73698;51.138;6.950;2024-01-15T18:15:36;5.80;;;2.97;;
83715;SDS011;73698;51.138;6.950;2024-01-15T18:18:01;5.47;;;2.65;;
83715;SDS011;73698;51.138;6.950;2024-01-15T18:20:27;5.88;;;2.90;;
83715;SDS011;73698;51.138;6.950;2024-01-15T18:22:52;6.90;;;2.97;;
83715;SDS011;73698;51.138;6.950;2024-01-15T18:25:18;8.10;;;3.15;;
83715;SDS011;73698;51.138;6.950;2024-01-15T18:27:44;5.80;;;3.05;;
83715;SDS011;73698;51.138;6.950;2024-01-15T18:30:09;7.32;;;2.83;;
83715;SDS011;73698;51.138;6.950;2024-01-15T18:32:37;5.50;;;3.33;;
83715;SDS011;73698;51.138;6.950;2024-01-15T18:35:02;5.03;;;2.65;;
83715;SDS011;73698;51.138;6.950;2024-01-15T18:37:28;5.40;;;2.60;;
83715;SDS011;73698;51.138;6.950;2024-01-15T18:39:53;7.80;;;3.58;;
83715;SDS011;73698;51.138;6.950;2024-01-15T18:42:19;10.98;;;3.30;;
83715;SDS011;73698;51.138;6.950;2024-01-15T18:44:44;6.25;;;2.80;;
83715;SDS011;73698;51.138;6.950;2024-01-15T18:47:10;9.63;;;3.00;;
83715;SDS011;73698;51.138;6.950;2024-01-15T18:49:35;5.80;;;2.83;;
83715;SDS011;73698;51.138;6.950;2024-01-15T18:52:01;6.03;;;2.47;;
83715;SDS011;73698;51.138;6.950;2024-01-15T18:54:27;6.55;;;3.55;;
83715;SDS011;73698;51.138;6.950;2024-01-15T18:56:52;5.57;;;2.60;;
83715;SDS011;73698;51.138;6.950;2024-01-15T18:59:18;5.70;;;2.40;;
83715;SDS011;73698;51.138;6.950;2024-01-15T19:01:44;8.18;;;2.90;;
83715;SDS011;73698;51.138;6.950;2024-01-15T19:04:09;7.95;;;2.60;;
83715;SDS011;73698;51.138;6.950;2024-01-15T19:06:36;10.93;;;2.58;;
83715;SDS011;73698;51.138;6.950;2024-01-15T19:09:03;6.07;;;2.35;;
83715;SDS011;73698;51.138;6.950;2024-01-15T19:11:28;6.53;;;2.90;;
83715;SDS011;73698;51.138;6.950;2024-01-15T19:13:54;5.18;;;2.90;;
83715;SDS011;73698;51.138;6.950;2024-01-15T19:16:20;14.93;;;2.92;;
83715;SDS011;73698;51.138;6.950;2024-01-15T19:18:49;6.75;;;3.13;;
83715;SDS011;73698;51.138;6.950;2024-01-15T19:21:15;4.45;;;2.50;;
83715;SDS011;73698;51.138;6.950;2024-01-15T19:23:40;6.28;;;3.03;;
83715;SDS011;73698;51.138;6.950;2024-01-15T19:26:06;7.95;;;3.08;;
83715;SDS011;73698;51.138;6.950;2024-01-15T19:28:32;8.95;;;4.25;;
83715;SDS011;73698;51.138;6.950;2024-01-15T19:30:57;9.88;;;3.40;;
83715;SDS011;73698;51.138;6.950;2024-01-15T19:33:23;9.25;;;3.85;;
83715;SDS011;73698;51.138;6.950;2024-01-15T19:35:48;8.35;;;3.50;;
83715;SDS011;73698;51.138;6.950;2024-01-15T19:38:14;10.65;;;3.20;;
83715;SDS011;73698;51.138;6.950;2024-01-15T19:40:39;7.65;;;2.65;;
83715;SDS011;73698;51.138;6.950;2024-01-15T19:43:06;6.65;;;3.20;;
83715;SDS011;73698;51.138;6.950;2024-01-15T19:45:31;14.15;;;4.28;;
83715;SDS011;73698;51.138;6.950;2024-01-15T19:47:56;13.13;;;4.25;;
83715;SDS011;73698;51.138;6.950;2024-01-15T19:50:22;8.88;;;3.75;;
83715;SDS011;73698;51.138;6.950;2024-01-15T19:52:47;12.98;;;4.60;;
83715;SDS011;73698;51.138;6.950;2024-01-15T19:55:13;10.68;;;4.72;;
83715;SDS011;73698;51.138;6.950;2024-01-15T19:57:39;9.75;;;4.30;;
83715;SDS011;73698;51.138;6.950;2024-01-15T20:00:08;12.63;;;5.13;;
83715;SDS011;73698;51.138;6.950;2024-01-15T20:02:34;8.30;;;4.47;;
83715;SDS011;73698;51.138;6.950;2024-01-15T20:04:59;15.10;;;3.38;;
83715;SDS011;73698;51.138;6.950;2024-01-15T20:07:25;14.50;;;4.78;;
83715;SDS011;73698;51.138;6.950;2024-01-15T20:09:51;14.18;;;5.70;;
83715;SDS011;73698;51.138;6.950;2024-01-15T20:12:18;14.68;;;4.70;;
83715;SDS011;73698;51.138;6.950;2024-01-15T20:14:43;9.88;;;5.35;;
83715;SDS011;73698;51.138;6.950;2024-01-15T20:17:09;14.93;;;5.75;;
83715;SDS011;73698;51.138;6.950;2024-01-15T20:19:34;12.02;;;5.30;;
83715;SDS011;73698;51.138;6.950;2024-01-15T20:22:00;12.75;;;5.00;;
83715;SDS011;73698;51.138;6.950;2024-01-15T20:24:25;12.63;;;6.22;;
83715;SDS011;73698;51.138;6.950;2024-01-15T20:26:51;13.98;;;6.53;;
83715;SDS011;73698;51.138;6.950;2024-01-15T20:29:16;15.35;;;6.20;;
83715;SDS011;73698;51.138;6.950;2024-01-15T20:31:42;12.15;;;4.35;;
83715;SDS011;73698;51.138;6.950;2024-01-15T20:34:09;11.18;;;6.35;;
83715;SDS011;73698;51.138;6.950;2024-01-15T20:36:34;15.60;;;5.85;;
83715;SDS011;73698;51.138;6.950;2024-01-15T20:39:00;14.10;;;6.18;;
83715;SDS011;73698;51.138;6.950;2024-01-15T20:41:25;19.77;;;7.53;;
83715;SDS011;73698;51.138;6.950;2024-01-15T20:43:51;14.60;;;6.72;;
83715;SDS011;73698;51.138;6.950;2024-01-15T20:46:16;16.40;;;5.97;;
83715;SDS011;73698;51.138;6.950;2024-01-15T20:48:42;13.90;;;5.97;;
83715;SDS011;73698;51.138;6.950;2024-01-15T20:51:09;15.23;;;7.15;;
83715;SDS011;73698;51.138;6.950;2024-01-15T20:53:35;19.70;;;5.95;;
83715;SDS011;73698;51.138;6.950;2024-01-15T20:56:01;11.50;;;5.65;;
83715;SDS011;73698;51.138;6.950;2024-01-15T20:58:26;14.18;;;6.57;;
83715;SDS011;73698;51.138;6.950;2024-01-15T21:00:52;14.85;;;6.20;;
83715;SDS011;73698;51.138;6.950;2024-01-15T21:03:19;10.98;;;5.32;;
83715;SDS011;73698;51.138;6.950;2024-01-15T21:05:44;9.93;;;5.38;;
83715;SDS011;73698;51.138;6.950;2024-01-15T21:08:10;15.18;;;5.95;;
83715;SDS011;73698;51.138;6.950;2024-01-15T21:10:35;14.38;;;5.47;;
83715;SDS011;73698;51.138;6.950;2024-01-15T21:13:01;20.42;;;5.55;;
83715;SDS011;73698;51.138;6.950;2024-01-15T21:15:26;9.80;;;4.95;;
83715;SDS011;73698;51.138;6.950;2024-01-15T21:17:51;8.77;;;4.47;;
83715;SDS011;73698;51.138;6.950;2024-01-15T21:20:18;10.90;;;5.40;;
83715;SDS011;73698;51.138;6.950;2024-01-15T21:22:43;11.50;;;4.45;;
83715;SDS011;73698;51.138;6.950;2024-01-15T21:25:09;8.95;;;4.53;;
83715;SDS011;73698;51.138;6.950;2024-01-15T21:27:35;10.82;;;4.28;;
83715;SDS011;73698;51.138;6.950;2024-01-15T21:30:03;11.23;;;4.82;;
83715;SDS011;73698;51.138;6.950;2024-01-15T21:32:30;10.00;;;5.10;;
83715;SDS011;73698;51.138;6.950;2024-01-15T21:34:55;8.30;;;3.80;;
83715;SDS011;73698;51.138;6.950;2024-01-15T21:37:21;7.88;;;5.13;;
83715;SDS011;73698;51.138;6.950;2024-01-15T21:39:46;8.60;;;4.88;;
83715;SDS011;73698;51.138;6.950;2024-01-15T21:42:12;9.02;;;4.90;;
83715;SDS011;73698;51.138;6.950;2024-01-15T21:44:37;8.02;;;4.35;;
83715;SDS011;73698;51.138;6.950;2024-01-15T21:47:03;8.25;;;5.18;;
83715;SDS011;73698;51.138;6.950;2024-01-15T21:49:28;9.88;;;4.72;;
83715;SDS011;73698;51.138;6.950;2024-01-15T21:51:54;13.27;;;4.95;;
83715;SDS011;73698;51.138;6.950;2024-01-15T21:54:20;12.68;;;5.13;;
83715;SDS011;73698;51.138;6.950;2024-01-15T21:56:45;8.07;;;4.35;;
83715;SDS011;73698;51.138;6.950;2024-01-15T21:59:11;11.82;;;5.47;;
83715;SDS011;73698;51.138;6.950;2024-01-15T22:01:36;10.32;;;5.50;;
83715;SDS011;73698;51.138;6.950;2024-01-15T22:04:01;8.32;;;3.60;;
83715;SDS011;73698;51.138;6.950;2024-01-15T22:06:27;12.15;;;5.65;;
83715;SDS011;73698;51.138;6.950;2024-01-15T22:08:53;8.35;;;4.60;;
83715;SDS011;73698;51.138;6.950;2024-01-15T22:11:19;12.05;;;5.43;;
83715;SDS011;73698;51.138;6.950;2024-01-15T22:13:44;9.18;;;5.47;;
83715;SDS011;73698;51.138;6.950;2024-01-15T22:16:09;17.02;;;5.80;;
